createdAt,value
2022-10-20T00:00:41.059Z,10.10
2022-10-20T00:04:41.171Z,13.20
2022-10-20T00:08:41.903Z,13.53
2022-10-20T00:12:44.632Z,16.07
2022-10-20T00:16:44.777Z,16.87
2022-10-20T00:20:45.130Z,14.40
2022-10-20T00:24:45.773Z,14.87
2022-10-20T00:28:49.956Z,14.83
2022-10-20T00:32:50.892Z,15.20
2022-10-20T00:36:51.529Z,15.50
2022-10-20T00:40:51.701Z,11.83
2022-10-20T00:44:58.569Z,16.50
2022-10-20T00:49:04.301Z,15.77
2022-10-20T00:53:05.504Z,15.70
2022-10-20T00:57:06.273Z,19.23
2022-10-20T01:01:09.461Z,15.47
2022-10-20T01:05:11.596Z,14.93
2022-10-20T01:09:14.230Z,14.97
2022-10-20T01:13:28.188Z,15.07
2022-10-20T01:17:46.529Z,18.13
2022-10-20T01:22:20.616Z,18.40
2022-10-20T01:26:57.536Z,12.40
2022-10-20T01:31:04.810Z,16.67
2022-10-20T01:35:12.910Z,15.00
2022-10-20T01:39:21.918Z,16.93
2022-10-20T01:43:26.512Z,13.37
2022-10-20T01:47:33.093Z,22.83
2022-10-20T01:51:34.375Z,14.00
2022-10-20T01:55:35.095Z,12.90
2022-10-20T01:59:51.716Z,16.80
2022-10-20T02:03:59.327Z,15.03
2022-10-20T02:08:15.714Z,12.30
2022-10-20T02:12:22.220Z,16.33
2022-10-20T02:16:30.469Z,14.77
2022-10-20T02:20:34.948Z,14.03
2022-10-20T02:24:40.508Z,17.53
2022-10-20T02:28:45.998Z,13.97
2022-10-20T02:32:52.517Z,12.90
2022-10-20T02:37:00.725Z,14.57
2022-10-20T02:41:01.421Z,13.83
2022-10-20T02:45:01.470Z,14.17
2022-10-20T02:49:01.724Z,15.07
2022-10-20T02:53:04.556Z,13.00
2022-10-20T02:57:04.643Z,13.83
2022-10-20T03:01:04.925Z,17.00
2022-10-20T03:05:05.129Z,13.77
2022-10-20T03:09:08.328Z,18.80
2022-10-20T03:13:09.087Z,13.20
2022-10-20T03:17:09.132Z,13.93
2022-10-20T03:21:09.526Z,16.70
2022-10-20T03:25:12.569Z,22.70
2022-10-20T03:29:13.975Z,17.00
2022-10-20T03:33:14.036Z,18.07
2022-10-20T03:37:14.246Z,19.67
2022-10-20T03:41:17.074Z,15.77
2022-10-20T03:45:18.671Z,15.33
2022-10-20T03:49:19.077Z,17.63
2022-10-20T03:53:19.169Z,14.13
2022-10-20T03:57:22.579Z,14.77
2022-10-20T04:01:29.987Z,18.17
2022-10-20T04:05:30.162Z,15.03
2022-10-20T04:09:30.217Z,15.00
2022-10-20T04:13:32.950Z,16.57
2022-10-20T04:17:33.094Z,17.47
2022-10-20T04:21:33.333Z,13.57
2022-10-20T04:25:33.462Z,21.30
2022-10-20T04:29:36.269Z,17.97
2022-10-20T04:33:37.341Z,16.43
2022-10-20T04:37:37.759Z,21.00
2022-10-20T04:41:38.464Z,28.50
2022-10-20T04:45:41.251Z,26.50
2022-10-20T04:49:42.888Z,23.23
2022-10-20T04:53:43.568Z,24.90
2022-10-20T04:57:43.652Z,29.13
2022-10-20T05:01:46.399Z,32.07
2022-10-20T05:05:46.537Z,25.60
2022-10-20T05:09:46.596Z,24.53
2022-10-20T05:13:47.065Z,28.20
2022-10-20T05:17:49.967Z,29.30
2022-10-20T05:21:50.281Z,26.27
2022-10-20T05:25:50.569Z,29.07
2022-10-20T05:29:50.636Z,28.43
2022-10-20T05:33:56.562Z,24.17
2022-10-20T05:37:56.669Z,36.77
2022-10-20T05:41:56.701Z,33.23
2022-10-20T05:45:57.616Z,27.10
2022-10-20T05:50:00.528Z,27.63
2022-10-20T05:54:02.284Z,23.70
2022-10-20T05:58:02.400Z,25.37
2022-10-20T06:02:02.507Z,19.57
2022-10-20T06:06:06.454Z,19.17
2022-10-20T06:10:08.121Z,17.93
2022-10-20T06:14:08.274Z,21.30
2022-10-20T06:18:08.760Z,26.43
2022-10-20T06:22:11.574Z,22.00
2022-10-20T06:26:17.483Z,21.47
2022-10-20T06:30:17.746Z,23.93
2022-10-20T06:34:27.947Z,25.70
2022-10-20T06:38:40.332Z,19.83
2022-10-20T06:47:16.312Z,17.93
2022-10-20T06:51:25.110Z,16.93
2022-10-20T06:55:40.449Z,20.30
2022-10-20T06:59:50.785Z,20.20
2022-10-20T07:03:53.263Z,21.97
2022-10-20T07:07:56.095Z,26.00
2022-10-20T07:11:58.802Z,21.00
2022-10-20T07:16:00.044Z,21.30
2022-10-20T07:20:00.270Z,19.67
2022-10-20T07:24:03.481Z,19.80
2022-10-20T07:28:06.404Z,23.00
2022-10-20T07:32:07.067Z,16.20
2022-10-20T07:36:16.237Z,19.07
2022-10-20T07:40:16.542Z,14.47
2022-10-20T07:44:20.187Z,17.00
2022-10-20T07:48:20.278Z,12.70
2022-10-20T07:52:20.522Z,14.13
2022-10-20T07:56:20.944Z,11.30
2022-10-20T08:00:24.059Z,9.47
2022-10-20T08:04:24.176Z,13.43
2022-10-20T08:08:24.344Z,10.83
2022-10-20T08:12:24.410Z,13.50
2022-10-20T08:16:30.030Z,14.37
2022-10-20T08:20:33.072Z,13.17
2022-10-20T08:24:33.994Z,12.43
2022-10-20T08:28:34.093Z,12.63
2022-10-20T08:32:37.244Z,12.73
2022-10-20T08:36:37.578Z,9.67
2022-10-20T08:40:43.937Z,8.97
2022-10-20T08:44:48.760Z,13.57
2022-10-20T08:48:52.957Z,11.00
2022-10-20T08:52:59.040Z,11.53
2022-10-20T08:56:59.315Z,12.70
2022-10-20T09:01:02.663Z,11.27
2022-10-20T09:05:09.356Z,8.67
2022-10-20T09:09:10.214Z,9.43
2022-10-20T09:13:23.818Z,7.70
2022-10-20T09:17:24.001Z,10.97
2022-10-20T09:21:27.654Z,10.63
2022-10-20T09:25:29.906Z,9.47
2022-10-20T09:29:40.901Z,12.40
2022-10-20T09:33:42.193Z,11.43
2022-10-20T09:37:47.221Z,6.93
2022-10-20T09:41:47.543Z,6.60
2022-10-20T09:45:57.298Z,8.40
2022-10-20T09:50:02.743Z,9.53
2022-10-20T09:54:09.450Z,7.32
2022-10-20T09:58:17.830Z,7.80
2022-10-20T10:02:35.743Z,8.90
2022-10-20T10:06:46.305Z,6.45
2022-10-20T10:11:05.998Z,9.15
2022-10-20T10:15:30.574Z,5.72
2022-10-20T10:25:21.570Z,6.68
2022-10-20T10:29:52.522Z,5.78
2022-10-20T10:35:17.433Z,7.60
2022-10-20T10:39:43.837Z,6.07
2022-10-20T10:44:16.781Z,7.22
2022-10-20T10:49:43.271Z,5.65
2022-10-20T10:54:19.940Z,6.53
2022-10-20T11:04:25.232Z,8.98
2022-10-20T11:08:58.956Z,7.38
2022-10-20T11:13:23.062Z,8.90
2022-10-20T11:17:45.515Z,7.43
2022-10-20T11:22:07.631Z,5.15
2022-10-20T11:26:28.238Z,6.18
2022-10-20T11:30:30.243Z,6.88
2022-10-20T11:34:39.153Z,9.15
2022-10-20T11:38:49.798Z,6.43
2022-10-20T11:43:01.786Z,5.63
2022-10-20T11:47:08.955Z,4.07
2022-10-20T11:51:38.872Z,3.85
2022-10-20T11:55:58.464Z,3.53
2022-10-20T12:00:29.613Z,5.75
2022-10-20T12:05:23.034Z,4.57
2022-10-20T12:09:55.424Z,4.78
2022-10-20T12:14:10.677Z,5.13
2022-10-20T12:18:27.153Z,3.75
2022-10-20T12:22:45.383Z,4.50
2022-10-20T12:27:21.278Z,4.10
2022-10-20T12:31:25.710Z,8.88
2022-10-20T12:36:17.742Z,4.88
2022-10-20T12:40:31.147Z,3.60
2022-10-20T12:44:35.104Z,3.30
2022-10-20T12:48:46.131Z,3.92
2022-10-20T12:52:47.023Z,5.20
2022-10-20T12:56:48.053Z,5.72
2022-10-20T13:01:11.032Z,3.88
2022-10-20T13:05:47.592Z,6.57
2022-10-20T13:10:01.711Z,4.57
2022-10-20T13:14:24.917Z,8.35
2022-10-20T13:18:31.437Z,5.97
2022-10-20T13:22:49.314Z,4.72
2022-10-20T13:26:56.318Z,6.38
2022-10-20T13:31:20.708Z,4.47
2022-10-20T13:35:29.757Z,6.20
2022-10-20T13:39:49.666Z,4.10
2022-10-20T13:44:04.851Z,5.32
2022-10-20T13:48:29.394Z,5.38
2022-10-20T13:52:35.075Z,5.05
2022-10-20T13:56:45.125Z,4.65
2022-10-20T14:01:02.242Z,5.90
2022-10-20T14:05:09.083Z,3.85
2022-10-20T14:09:18.424Z,6.93
2022-10-20T14:13:24.665Z,6.72
2022-10-20T14:17:27.248Z,7.07
2022-10-20T14:21:28.807Z,5.82
2022-10-20T14:25:31.560Z,4.18
2022-10-20T14:29:39.404Z,10.68
2022-10-20T14:33:46.245Z,5.43
2022-10-20T14:37:55.426Z,5.63
2022-10-20T14:41:59.965Z,5.82
2022-10-20T14:46:05.638Z,7.13
2022-10-20T14:50:08.142Z,8.68
2022-10-20T14:54:30.810Z,7.45
2022-10-20T14:58:41.617Z,8.65
2022-10-20T15:02:45.928Z,11.25
2022-10-20T15:06:46.986Z,7.05
2022-10-20T15:10:47.792Z,7.43
2022-10-20T15:14:51.781Z,11.10
2022-10-20T15:19:16.041Z,5.50
2022-10-20T15:23:18.781Z,10.20
2022-10-20T15:27:20.921Z,6.63
2022-10-20T15:31:25.706Z,9.43
2022-10-20T15:35:30.960Z,10.80
2022-10-20T15:39:31.038Z,8.13
2022-10-20T15:43:31.106Z,11.75
2022-10-20T15:47:31.285Z,16.13
2022-10-20T15:51:39.916Z,12.57
2022-10-20T15:55:45.249Z,10.70
2022-10-20T15:59:45.324Z,14.30
2022-10-20T16:03:45.987Z,7.70
2022-10-20T16:07:48.840Z,8.98
2022-10-20T16:11:49.118Z,8.57
2022-10-20T16:15:49.226Z,8.30
2022-10-20T16:19:49.404Z,4.87
2022-10-20T16:23:52.046Z,10.10
2022-10-20T16:27:52.158Z,7.15
2022-10-20T16:31:52.271Z,7.60
2022-10-20T16:35:52.338Z,10.20
2022-10-20T16:39:55.313Z,8.07
2022-10-20T16:43:58.855Z,16.17
2022-10-20T16:48:00.991Z,13.60
2022-10-20T16:52:01.790Z,9.40
2022-10-20T16:56:05.156Z,25.30
2022-10-20T17:00:05.692Z,31.33
2022-10-20T17:04:06.625Z,6.77
2022-10-20T17:08:07.337Z,24.77
2022-10-20T17:12:10.189Z,10.90
2022-10-20T17:16:13.559Z,9.50
2022-10-20T17:20:14.666Z,14.27
2022-10-20T17:24:16.062Z,12.57
2022-10-20T17:28:19.332Z,15.00
2022-10-20T17:32:19.496Z,14.63
2022-10-20T17:36:25.883Z,15.83
2022-10-20T17:40:26.322Z,12.47
2022-10-20T17:44:29.329Z,12.17
2022-10-20T17:48:29.814Z,40.10
2022-10-20T17:52:32.250Z,43.23
2022-10-20T17:56:40.128Z,17.00
2022-10-20T18:00:56.104Z,10.67
2022-10-20T18:04:57.562Z,10.10
2022-10-20T18:08:59.504Z,11.67
2022-10-20T18:13:00.007Z,9.90
2022-10-20T18:17:02.839Z,9.23
2022-10-20T18:21:03.551Z,7.03
2022-10-20T18:25:05.222Z,8.90
2022-10-20T18:29:07.596Z,8.50
2022-10-20T18:33:10.894Z,8.93
2022-10-20T18:37:15.444Z,7.23
2022-10-20T18:41:18.551Z,7.27
2022-10-20T18:45:21.363Z,28.37
2022-10-20T18:49:27.214Z,30.40
2022-10-20T18:53:28.483Z,27.00
2022-10-20T18:57:28.724Z,12.50
2022-10-20T19:01:31.617Z,58.40
2022-10-20T19:05:36.898Z,39.03
2022-10-20T19:09:37.429Z,25.20
2022-10-20T19:13:37.681Z,19.00
2022-10-20T19:17:37.927Z,18.17
2022-10-20T19:21:40.793Z,15.10
2022-10-20T19:25:41.617Z,9.43
2022-10-20T19:29:41.906Z,14.03
2022-10-20T19:33:42.249Z,9.33
2022-10-20T19:37:44.945Z,11.33
2022-10-20T19:41:45.488Z,11.33
2022-10-20T19:45:49.076Z,16.80
2022-10-20T19:49:50.028Z,10.70
2022-10-20T19:53:53.308Z,13.27
2022-10-20T19:57:53.629Z,12.40
2022-10-20T20:01:53.758Z,13.00
2022-10-20T20:06:01.118Z,15.77
2022-10-20T20:10:03.878Z,14.57
2022-10-20T20:14:07.201Z,15.73
2022-10-20T20:18:11.044Z,14.27
2022-10-20T20:22:13.877Z,12.83
2022-10-20T20:26:16.844Z,13.93
2022-10-20T20:30:17.151Z,11.53
2022-10-20T20:34:18.164Z,9.03
2022-10-20T20:38:18.210Z,13.40
2022-10-20T20:42:21.050Z,10.80
2022-10-20T20:46:23.984Z,13.20
2022-10-20T20:50:24.123Z,11.73
2022-10-20T20:54:26.229Z,16.17
2022-10-20T20:58:32.299Z,12.97
2022-10-20T21:02:32.368Z,12.23
2022-10-20T21:06:56.646Z,19.53
2022-10-20T21:10:54.290Z,13.57
2022-10-20T21:14:57.203Z,11.43
2022-10-20T21:19:00.280Z,10.80
2022-10-20T21:23:00.388Z,15.20
2022-10-20T21:27:00.559Z,11.10
2022-10-20T21:31:03.702Z,11.17
2022-10-20T21:35:03.801Z,12.53
2022-10-20T21:39:05.126Z,10.80
2022-10-20T21:43:08.905Z,11.77
2022-10-20T21:47:11.691Z,12.80
2022-10-20T21:51:15.198Z,17.70
2022-10-20T21:55:15.283Z,13.30
2022-10-20T21:59:21.590Z,14.10
2022-10-20T22:03:25.567Z,14.73
2022-10-20T22:07:26.171Z,21.40
2022-10-20T22:11:30.021Z,14.70
2022-10-20T22:15:30.161Z,25.80
2022-10-20T22:19:32.911Z,56.47
2022-10-20T22:23:33.154Z,37.40
2022-10-20T22:27:42.433Z,10.83
2022-10-20T22:31:46.076Z,14.53
2022-10-20T22:35:49.053Z,17.60
2022-10-20T22:39:49.101Z,11.03
2022-10-20T22:43:49.680Z,10.53
2022-10-20T22:47:49.823Z,10.90
2022-10-20T22:51:52.515Z,16.53
2022-10-20T22:55:53.362Z,33.87
2022-10-20T22:59:55.148Z,52.20
2022-10-20T23:03:55.597Z,38.67
2022-10-20T23:07:58.346Z,44.07
2022-10-20T23:11:58.756Z,40.07
2022-10-20T23:15:58.831Z,37.13
2022-10-20T23:19:58.969Z,44.53
2022-10-20T23:24:01.646Z,41.70
2022-10-20T23:28:01.699Z,37.80
2022-10-20T23:32:01.902Z,29.90
2022-10-20T23:36:02.062Z,23.20
2022-10-20T23:40:07.767Z,21.37
2022-10-20T23:44:08.227Z,17.93
2022-10-20T23:48:08.578Z,36.40
2022-10-20T23:52:08.923Z,35.63
2022-10-20T23:56:11.831Z,26.27
